createdAt,value
2023-02-15T00:00:22.730Z,99.99
2023-02-15T00:01:22.725Z,99.99
2023-02-15T00:02:22.832Z,99.99
2023-02-15T00:03:22.815Z,99.99
2023-02-15T00:04:22.680Z,99.99
2023-02-15T00:05:22.672Z,99.99
2023-02-15T00:06:22.664Z,99.99
2023-02-15T00:07:22.705Z,99.99
2023-02-15T00:08:22.642Z,99.99
2023-02-15T00:09:22.622Z,99.99
2023-02-15T00:10:22.633Z,99.99
2023-02-15T00:11:22.600Z,99.99
2023-02-15T00:12:22.602Z,99.99
2023-02-15T00:13:22.719Z,99.99
2023-02-15T00:14:22.591Z,99.99
2023-02-15T00:15:22.617Z,99.99
2023-02-15T00:16:22.570Z,99.99
2023-02-15T00:17:22.579Z,99.99
2023-02-15T00:18:22.530Z,99.99
2023-02-15T00:19:22.543Z,99.99
2023-02-15T00:20:22.517Z,99.99
2023-02-15T00:21:22.498Z,99.99
2023-02-15T00:22:22.500Z,99.99
2023-02-15T00:23:22.472Z,99.99
2023-02-15T00:24:22.462Z,99.99
2023-02-15T00:25:22.462Z,99.99
2023-02-15T00:26:22.431Z,99.99
2023-02-15T00:27:22.492Z,99.99
2023-02-15T00:28:22.408Z,99.99
2023-02-15T00:29:22.418Z,99.99
2023-02-15T00:30:22.423Z,99.99
2023-02-15T00:31:22.543Z,99.99
2023-02-15T00:32:22.367Z,99.99
2023-02-15T00:33:22.366Z,99.99
2023-02-15T00:34:22.375Z,99.99
2023-02-15T00:35:22.368Z,99.99
2023-02-15T00:36:22.335Z,99.99
2023-02-15T00:37:22.338Z,99.99
2023-02-15T00:38:22.307Z,99.99
2023-02-15T00:39:22.349Z,99.99
2023-02-15T00:40:22.281Z,99.99
2023-02-15T00:41:22.277Z,99.99
2023-02-15T00:42:22.270Z,99.99
2023-02-15T00:43:22.278Z,99.99
2023-02-15T00:44:22.229Z,99.99
2023-02-15T00:45:22.254Z,99.99
2023-02-15T00:46:22.251Z,99.99
2023-02-15T00:47:22.242Z,99.99
2023-02-15T00:48:22.211Z,99.99
2023-02-15T00:49:22.178Z,99.99
2023-02-15T00:50:23.834Z,99.99
2023-02-15T00:51:22.173Z,99.99
2023-02-15T00:52:22.174Z,99.99
2023-02-15T00:53:22.169Z,99.99
2023-02-15T00:54:22.148Z,99.99
2023-02-15T00:55:22.122Z,99.99
2023-02-15T00:56:22.103Z,99.99
2023-02-15T00:57:22.126Z,99.99
2023-02-15T00:58:22.116Z,99.99
2023-02-15T00:59:22.079Z,99.99
2023-02-15T01:00:22.086Z,99.99
2023-02-15T01:01:22.147Z,99.99
2023-02-15T01:02:22.033Z,99.99
2023-02-15T01:03:22.069Z,99.99
2023-02-15T01:04:22.020Z,99.99
2023-02-15T01:05:22.053Z,99.99
2023-02-15T01:06:22.005Z,99.99
2023-02-15T01:07:22.026Z,99.99
2023-02-15T01:08:21.965Z,99.99
2023-02-15T01:09:21.974Z,99.99
2023-02-15T01:10:21.950Z,99.99
2023-02-15T01:11:21.948Z,99.99
2023-02-15T01:12:21.993Z,99.99
2023-02-15T01:13:21.913Z,99.99
2023-02-15T01:14:21.905Z,99.99
2023-02-15T01:15:21.896Z,99.99
2023-02-15T01:16:21.997Z,99.99
2023-02-15T01:17:21.883Z,99.99
2023-02-15T01:18:21.899Z,99.99
2023-02-15T01:19:21.846Z,99.99
2023-02-15T01:20:21.843Z,99.99
2023-02-15T01:21:21.852Z,99.99
2023-02-15T01:22:21.859Z,99.99
2023-02-15T01:23:21.820Z,99.99
2023-02-15T01:24:21.856Z,99.99
2023-02-15T01:25:21.783Z,99.99
2023-02-15T01:26:21.783Z,99.99
2023-02-15T01:27:21.809Z,99.99
2023-02-15T01:28:21.763Z,99.99
2023-02-15T01:29:21.745Z,99.99
2023-02-15T01:30:21.803Z,99.99
2023-02-15T01:31:21.889Z,99.99
2023-02-15T01:32:21.722Z,99.99
2023-02-15T01:33:21.733Z,99.99
2023-02-15T01:34:21.695Z,99.99
2023-02-15T01:35:21.670Z,99.99
2023-02-15T01:36:21.670Z,99.99
2023-02-15T01:37:21.657Z,99.99
2023-02-15T01:38:21.670Z,99.99
2023-02-15T01:39:21.663Z,99.99
2023-02-15T01:40:21.631Z,99.99
2023-02-15T01:41:21.610Z,99.99
2023-02-15T01:42:21.606Z,99.99
2023-02-15T01:43:21.627Z,99.99
2023-02-15T01:44:21.602Z,99.99
2023-02-15T01:45:21.567Z,99.99
2023-02-15T01:46:21.638Z,99.99
2023-02-15T01:47:21.541Z,99.99
2023-02-15T01:48:21.538Z,99.99
2023-02-15T01:49:21.539Z,99.99
2023-02-15T01:50:21.508Z,99.99
2023-02-15T01:51:21.537Z,99.99
2023-02-15T01:52:21.479Z,99.99
2023-02-15T01:53:21.490Z,99.99
2023-02-15T01:54:21.462Z,99.99
2023-02-15T01:55:21.508Z,99.99
2023-02-15T01:56:21.444Z,99.99
2023-02-15T01:57:21.452Z,99.99
2023-02-15T01:58:21.412Z,99.99
2023-02-15T01:59:21.400Z,99.99
2023-02-15T02:00:21.408Z,99.99
2023-02-15T02:01:21.505Z,99.99
2023-02-15T02:02:21.439Z,99.99
2023-02-15T02:03:21.378Z,99.99
2023-02-15T02:04:21.349Z,99.99
2023-02-15T02:05:21.367Z,99.99
2023-02-15T02:06:21.338Z,99.99
2023-02-15T02:07:21.322Z,99.99
2023-02-15T02:08:21.308Z,99.99
2023-02-15T02:09:21.287Z,99.99
2023-02-15T02:10:21.278Z,99.99
2023-02-15T02:11:21.325Z,99.99
2023-02-15T02:12:21.276Z,99.99
2023-02-15T02:13:21.275Z,99.99
2023-02-15T02:14:21.248Z,99.99
2023-02-15T02:15:21.222Z,99.99
2023-02-15T02:16:21.304Z,99.99
2023-02-15T02:17:21.241Z,99.99
2023-02-15T02:18:21.189Z,99.99
2023-02-15T02:19:21.235Z,99.99
2023-02-15T02:20:21.186Z,99.99
2023-02-15T02:21:21.188Z,99.99
2023-02-15T02:22:21.175Z,99.99
2023-02-15T02:23:21.182Z,99.99
2023-02-15T02:24:21.125Z,99.99
2023-02-15T02:25:21.146Z,99.99
2023-02-15T02:26:21.132Z,99.99
2023-02-15T02:27:21.113Z,99.99
2023-02-15T02:28:21.158Z,99.99
2023-02-15T02:29:21.087Z,99.99
2023-02-15T02:30:21.167Z,99.99
2023-02-15T02:31:21.204Z,99.99
2023-02-15T02:32:21.032Z,99.99
2023-02-15T02:33:21.027Z,99.99
2023-02-15T02:34:21.055Z,99.99
2023-02-15T02:35:21.052Z,99.99
2023-02-15T02:36:21.003Z,99.99
2023-02-15T02:37:21.033Z,99.99
2023-02-15T02:38:20.970Z,99.99
2023-02-15T02:39:20.956Z,99.99
2023-02-15T02:40:20.956Z,99.99
2023-02-15T02:41:20.939Z,99.99
2023-02-15T02:42:20.968Z,99.99
2023-02-15T02:43:20.946Z,99.99
2023-02-15T02:44:20.907Z,99.99
2023-02-15T02:45:20.892Z,99.99
2023-02-15T02:46:20.929Z,99.99
2023-02-15T02:47:20.868Z,99.99
2023-02-15T02:48:20.908Z,99.99
2023-02-15T02:49:20.885Z,99.99
2023-02-15T02:50:20.836Z,99.99
2023-02-15T02:51:20.964Z,99.99
2023-02-15T02:52:20.837Z,99.99
2023-02-15T02:53:20.849Z,99.99
2023-02-15T02:54:20.822Z,99.99
2023-02-15T02:55:20.822Z,99.99
2023-02-15T02:56:20.775Z,99.99
2023-02-15T02:57:20.788Z,99.99
2023-02-15T02:58:20.780Z,99.99
2023-02-15T02:59:20.761Z,99.99
2023-02-15T03:00:20.739Z,99.99
2023-02-15T03:01:20.740Z,99.99
2023-02-15T03:02:20.725Z,99.99
2023-02-15T03:03:20.739Z,99.99
2023-02-15T03:04:20.713Z,99.99
2023-02-15T03:05:20.682Z,99.99
2023-02-15T03:06:20.678Z,99.99
2023-02-15T03:07:20.649Z,99.99
2023-02-15T03:08:20.661Z,99.99
2023-02-15T03:09:20.806Z,99.99
2023-02-15T03:10:20.616Z,99.99
2023-02-15T03:11:20.624Z,99.99
2023-02-15T03:12:20.596Z,99.99
2023-02-15T03:13:20.587Z,99.99
2023-02-15T03:14:20.644Z,99.99
2023-02-15T03:15:20.615Z,99.99
2023-02-15T03:16:20.662Z,99.99
2023-02-15T03:17:20.557Z,99.99
2023-02-15T03:18:20.536Z,99.99
2023-02-15T03:19:20.526Z,99.99
2023-02-15T03:20:20.542Z,99.99
2023-02-15T03:21:20.528Z,99.99
2023-02-15T03:22:20.501Z,99.99
2023-02-15T03:23:20.514Z,99.99
2023-02-15T03:24:20.468Z,99.99
2023-02-15T03:25:20.503Z,99.99
2023-02-15T03:26:20.525Z,99.99
2023-02-15T03:27:20.469Z,99.99
2023-02-15T03:28:20.434Z,99.99
2023-02-15T03:29:20.441Z,99.99
2023-02-15T03:30:20.475Z,99.99
2023-02-15T03:31:20.552Z,99.99
2023-02-15T03:32:20.453Z,99.99
2023-02-15T03:33:20.373Z,99.99
2023-02-15T03:34:20.375Z,99.99
2023-02-15T03:35:20.350Z,99.99
2023-02-15T03:36:20.376Z,99.99
2023-02-15T03:37:20.334Z,99.99
2023-02-15T03:38:20.397Z,99.99
2023-02-15T03:39:20.308Z,99.99
2023-02-15T03:40:20.319Z,99.99
2023-02-15T03:41:20.320Z,99.99
2023-02-15T03:42:20.271Z,99.99
2023-02-15T03:43:20.272Z,99.99
2023-02-15T03:44:20.283Z,99.99
2023-02-15T03:45:20.245Z,99.99
2023-02-15T03:46:20.277Z,99.99
2023-02-15T03:47:20.270Z,99.99
2023-02-15T03:48:20.202Z,99.99
2023-02-15T03:49:20.265Z,99.99
2023-02-15T03:50:20.224Z,99.99
2023-02-15T03:51:20.185Z,99.99
2023-02-15T03:52:20.178Z,99.99
2023-02-15T03:53:21.881Z,99.99
2023-02-15T03:54:20.139Z,99.99
2023-02-15T03:55:20.163Z,99.99
2023-02-15T03:56:20.132Z,99.99
2023-02-15T03:57:20.120Z,99.99
2023-02-15T03:58:20.092Z,99.99
2023-02-15T03:59:20.088Z,99.99
2023-02-15T04:00:20.077Z,99.99
2023-02-15T04:01:20.166Z,99.99
2023-02-15T04:02:20.104Z,99.99
2023-02-15T04:03:20.146Z,99.99
2023-02-15T04:04:20.032Z,99.99
2023-02-15T04:05:20.020Z,99.99
2023-02-15T04:06:20.016Z,99.99
2023-02-15T04:07:20.033Z,99.99
2023-02-15T04:08:20.017Z,99.99
2023-02-15T04:09:20.037Z,99.99
2023-02-15T04:10:19.959Z,99.99
2023-02-15T04:11:19.951Z,99.99
2023-02-15T04:12:19.949Z,99.99
2023-02-15T04:13:19.934Z,99.99
2023-02-15T04:14:19.952Z,99.99
2023-02-15T04:15:19.935Z,99.99
2023-02-15T04:16:20.008Z,99.99
2023-02-15T04:17:19.891Z,99.99
2023-02-15T04:18:19.894Z,99.99
2023-02-15T04:19:19.876Z,99.99
2023-02-15T04:20:19.871Z,99.99
2023-02-15T04:21:19.835Z,99.99
2023-02-15T04:22:19.837Z,99.99
2023-02-15T04:23:19.823Z,99.99
2023-02-15T04:24:19.811Z,99.99
2023-02-15T04:25:19.837Z,99.99
2023-02-15T04:26:19.800Z,99.99
2023-02-15T04:27:19.803Z,99.99
2023-02-15T04:28:19.756Z,99.99
2023-02-15T04:29:19.773Z,99.99
2023-02-15T04:30:19.867Z,99.99
2023-02-15T04:31:19.857Z,99.99
2023-02-15T04:32:19.747Z,99.99
2023-02-15T04:33:19.702Z,99.99
2023-02-15T04:34:19.709Z,99.99
2023-02-15T04:35:19.737Z,99.99
2023-02-15T04:36:19.669Z,99.99
2023-02-15T04:37:19.696Z,99.99
2023-02-15T04:38:19.661Z,99.99
2023-02-15T04:39:19.629Z,99.99
2023-02-15T04:40:19.946Z,99.99
2023-02-15T04:41:19.614Z,99.99
2023-02-15T04:42:19.643Z,99.99
2023-02-15T04:43:19.610Z,99.99
2023-02-15T04:44:19.587Z,99.99
2023-02-15T04:45:19.563Z,99.99
2023-02-15T04:46:19.590Z,99.99
2023-02-15T04:47:19.557Z,99.99
2023-02-15T04:48:19.581Z,99.99
2023-02-15T04:49:19.533Z,99.99
2023-02-15T04:50:19.549Z,99.99
2023-02-15T04:51:19.518Z,99.99
2023-02-15T04:52:19.493Z,99.99
2023-02-15T04:53:19.523Z,99.99
2023-02-15T04:54:19.485Z,99.99
2023-02-15T04:55:19.473Z,99.99
2023-02-15T04:56:19.444Z,99.99
2023-02-15T04:57:19.445Z,99.99
2023-02-15T04:58:19.491Z,99.99
2023-02-15T04:59:19.410Z,99.99
2023-02-15T05:00:19.418Z,99.99
2023-02-15T05:01:19.493Z,99.99
2023-02-15T05:02:19.387Z,99.99
2023-02-15T05:03:19.770Z,99.99
2023-02-15T05:04:19.443Z,99.99
2023-02-15T05:05:19.346Z,99.99
2023-02-15T05:06:19.501Z,99.99
2023-02-15T05:07:19.339Z,99.99
2023-02-15T05:08:19.326Z,99.99
2023-02-15T05:09:19.301Z,99.99
2023-02-15T05:10:19.313Z,99.99
2023-02-15T05:11:19.317Z,99.99
2023-02-15T05:12:19.294Z,99.99
2023-02-15T05:13:19.254Z,99.99
2023-02-15T05:14:19.302Z,99.99
2023-02-15T05:15:19.243Z,99.99
2023-02-15T05:16:19.264Z,99.99
2023-02-15T05:17:19.224Z,99.99
2023-02-15T05:18:19.220Z,99.99
2023-02-15T05:19:19.230Z,99.99
2023-02-15T05:20:19.189Z,99.99
2023-02-15T05:21:19.175Z,99.99
2023-02-15T05:22:19.167Z,99.99
2023-02-15T05:23:19.175Z,99.99
2023-02-15T05:24:19.168Z,99.99
2023-02-15T05:25:19.122Z,99.99
2023-02-15T05:26:19.128Z,99.99
2023-02-15T05:27:19.116Z,99.99
2023-02-15T05:28:19.159Z,99.99
2023-02-15T05:29:20.025Z,99.99
2023-02-15T05:30:19.210Z,99.99
2023-02-15T05:31:19.445Z,99.99
2023-02-15T05:32:19.207Z,99.99
2023-02-15T05:33:19.056Z,99.99
2023-02-15T05:34:19.050Z,99.99
2023-02-15T05:35:19.045Z,99.99
2023-02-15T05:36:27.581Z,99.99
2023-02-15T05:37:19.020Z,99.99
2023-02-15T05:38:18.985Z,99.99
2023-02-15T05:39:18.990Z,99.99
2023-02-15T05:40:18.980Z,99.99
2023-02-15T05:41:18.950Z,99.99
2023-02-15T05:42:18.989Z,99.99
2023-02-15T05:43:18.962Z,99.99
2023-02-15T05:44:18.927Z,99.99
2023-02-15T05:45:18.909Z,99.99
2023-02-15T05:46:18.979Z,99.99
2023-02-15T05:47:18.910Z,99.99
2023-02-15T05:48:18.923Z,99.99
2023-02-15T05:49:18.868Z,99.99
2023-02-15T05:50:18.896Z,99.99
2023-02-15T05:51:18.849Z,99.99
2023-02-15T05:52:18.866Z,99.99
2023-02-15T05:53:18.820Z,99.99
2023-02-15T05:54:18.861Z,99.99
2023-02-15T05:55:18.814Z,99.99
2023-02-15T05:56:18.812Z,99.99
2023-02-15T05:57:18.788Z,99.99
2023-02-15T05:58:18.796Z,99.99
2023-02-15T05:59:18.791Z,99.99
2023-02-15T06:00:18.751Z,99.99
2023-02-15T06:01:18.736Z,99.99
2023-02-15T06:02:18.842Z,99.99
2023-02-15T06:03:18.788Z,99.99
2023-02-15T06:04:18.745Z,99.99
2023-02-15T06:05:18.688Z,99.99
2023-02-15T06:06:18.697Z,99.99
2023-02-15T06:07:18.673Z,99.99
2023-02-15T06:08:18.657Z,99.99
2023-02-15T06:09:18.680Z,99.99
2023-02-15T06:10:18.692Z,99.99
2023-02-15T06:11:18.716Z,99.99
2023-02-15T06:12:18.612Z,99.99
2023-02-15T06:13:18.621Z,99.99
2023-02-15T06:14:18.595Z,99.99
2023-02-15T06:15:18.597Z,99.99
2023-02-15T06:16:18.658Z,99.99
2023-02-15T06:17:18.610Z,99.99
2023-02-15T06:18:18.552Z,99.99
2023-02-15T06:19:18.552Z,99.99
2023-02-15T06:20:18.533Z,99.99
2023-02-15T06:21:18.530Z,99.99
2023-02-15T06:22:18.542Z,99.99
2023-02-15T06:23:18.520Z,99.99
2023-02-15T06:24:18.500Z,99.99
2023-02-15T06:25:18.502Z,99.99
2023-02-15T06:26:18.474Z,99.99
2023-02-15T06:27:18.499Z,99.99
2023-02-15T06:28:18.436Z,99.99
2023-02-15T06:29:18.441Z,99.99
2023-02-15T06:30:18.448Z,99.99
2023-02-15T06:31:18.535Z,99.99
2023-02-15T06:32:18.412Z,99.99
2023-02-15T06:33:18.387Z,99.99
2023-02-15T06:34:18.416Z,99.99
2023-02-15T06:35:18.358Z,99.99
2023-02-15T06:36:18.360Z,99.99
2023-02-15T06:37:18.389Z,99.99
2023-02-15T06:38:18.338Z,99.99
2023-02-15T06:39:18.356Z,99.99
2023-02-15T06:40:18.310Z,99.99
2023-02-15T06:41:18.293Z,99.99
2023-02-15T06:42:18.301Z,99.99
2023-02-15T06:43:18.313Z,99.99
2023-02-15T06:44:18.274Z,99.99
2023-02-15T06:45:18.293Z,99.99
2023-02-15T06:46:18.346Z,99.99
2023-02-15T06:47:18.264Z,99.99
2023-02-15T06:48:18.246Z,99.99
2023-02-15T06:49:18.227Z,99.99
2023-02-15T06:50:18.224Z,99.99
2023-02-15T06:51:18.184Z,99.99
2023-02-15T06:52:18.192Z,99.99
2023-02-15T06:53:18.200Z,99.99
2023-02-15T06:54:18.156Z,99.99
2023-02-15T06:55:18.176Z,99.99
2023-02-15T06:56:18.171Z,99.99
2023-02-15T06:57:18.121Z,99.99
2023-02-15T06:58:18.116Z,99.99
2023-02-15T06:59:18.125Z,99.99
2023-02-15T07:00:18.130Z,99.99
2023-02-15T07:01:18.176Z,99.99
2023-02-15T07:02:18.068Z,99.99
2023-02-15T07:03:18.058Z,99.99
2023-02-15T07:04:18.048Z,99.99
2023-02-15T07:05:18.052Z,99.99
2023-02-15T07:06:18.052Z,99.99
2023-02-15T07:07:18.030Z,99.99
2023-02-15T07:08:18.038Z,99.99
2023-02-15T07:09:17.997Z,99.99
2023-02-15T07:10:17.972Z,99.99
2023-02-15T07:11:17.985Z,99.99
2023-02-15T07:12:18.000Z,99.99
2023-02-15T07:13:17.967Z,99.99
2023-02-15T07:14:17.926Z,99.99
2023-02-15T07:15:17.980Z,99.99
2023-02-15T07:16:17.923Z,99.99
2023-02-15T07:17:35.140Z,99.99
2023-02-15T07:18:18.881Z,99.99
2023-02-15T07:19:17.907Z,99.99
2023-02-15T07:20:17.910Z,99.99
2023-02-15T07:21:17.869Z,99.99
2023-02-15T07:22:17.854Z,99.99
2023-02-15T07:23:17.829Z,99.99
2023-02-15T07:24:17.823Z,99.99
2023-02-15T07:25:17.826Z,99.99
2023-02-15T07:26:17.814Z,99.99
2023-02-15T07:27:17.801Z,99.99
2023-02-15T07:28:17.814Z,99.99
2023-02-15T07:29:17.774Z,99.99
2023-02-15T07:30:17.925Z,99.99
2023-02-15T07:31:17.817Z,99.99
2023-02-15T07:32:17.761Z,99.99
2023-02-15T07:33:17.742Z,99.99
2023-02-15T07:34:17.735Z,99.99
2023-02-15T07:35:17.713Z,99.99
2023-02-15T07:36:17.715Z,99.99
2023-02-15T07:37:17.683Z,99.99
2023-02-15T07:38:17.664Z,99.99
2023-02-15T07:39:17.720Z,99.99
2023-02-15T07:40:17.641Z,99.99
2023-02-15T07:41:17.643Z,99.99
2023-02-15T07:42:17.640Z,99.99
2023-02-15T07:43:17.623Z,99.99
2023-02-15T07:44:17.595Z,99.99
2023-02-15T07:45:17.659Z,99.99
2023-02-15T07:46:17.661Z,99.99
2023-02-15T07:47:17.597Z,99.99
2023-02-15T07:48:17.553Z,99.99
2023-02-15T07:49:17.550Z,99.99
2023-02-15T07:50:17.575Z,99.99
2023-02-15T07:51:17.551Z,99.99
2023-02-15T07:52:17.603Z,99.99
2023-02-15T07:53:17.512Z,99.99
2023-02-15T07:54:17.485Z,99.99
2023-02-15T07:55:17.505Z,99.99
2023-02-15T07:56:17.465Z,99.99
2023-02-15T07:57:17.506Z,99.99
2023-02-15T07:58:17.453Z,99.99
2023-02-15T07:59:17.451Z,99.99
2023-02-15T08:00:17.423Z,99.99
2023-02-15T08:01:17.472Z,99.99
2023-02-15T08:02:18.463Z,99.99
2023-02-15T08:03:17.531Z,99.99
2023-02-15T08:04:17.397Z,99.99
2023-02-15T08:05:17.363Z,99.99
2023-02-15T08:06:17.394Z,99.99
2023-02-15T08:07:17.637Z,99.99
2023-02-15T08:08:17.341Z,99.99
2023-02-15T08:09:17.338Z,99.99
2023-02-15T08:10:17.334Z,99.99
2023-02-15T08:11:17.302Z,99.99
2023-02-15T08:12:17.344Z,99.99
2023-02-15T08:13:17.287Z,99.99
2023-02-15T08:14:17.327Z,99.99
2023-02-15T08:15:17.264Z,99.99
2023-02-15T08:16:17.278Z,99.99
2023-02-15T08:17:17.286Z,99.99
2023-02-15T08:18:17.254Z,99.99
2023-02-15T08:19:17.250Z,99.99
2023-02-15T08:20:17.202Z,99.99
2023-02-15T08:21:17.232Z,99.99
2023-02-15T08:22:17.246Z,99.99
2023-02-15T08:23:17.221Z,99.99
2023-02-15T08:24:17.233Z,99.99
2023-02-15T08:25:17.154Z,99.99
2023-02-15T08:26:17.150Z,99.99
2023-02-15T08:27:17.144Z,99.99
2023-02-15T08:28:17.142Z,99.99
2023-02-15T08:29:17.156Z,99.99
2023-02-15T08:30:17.181Z,99.99
2023-02-15T08:31:17.230Z,99.99
2023-02-15T08:32:17.174Z,99.99
2023-02-15T08:33:17.077Z,99.99
2023-02-15T08:34:17.092Z,99.99
2023-02-15T08:35:17.204Z,99.99
2023-02-15T08:36:17.030Z,99.99
2023-02-15T08:37:17.032Z,99.99
2023-02-15T08:38:17.016Z,99.99
2023-02-15T08:39:17.037Z,99.99
2023-02-15T08:40:17.031Z,99.99
2023-02-15T08:41:17.010Z,99.99
2023-02-15T08:42:17.014Z,99.99
2023-02-15T08:43:16.984Z,99.99
2023-02-15T08:44:16.984Z,99.99
2023-02-15T08:45:16.950Z,99.99
2023-02-15T08:46:17.049Z,99.99
2023-02-15T08:47:16.944Z,99.99
2023-02-15T08:48:16.900Z,99.99
2023-02-15T08:49:16.897Z,99.99
2023-02-15T08:50:16.894Z,99.99
2023-02-15T08:51:16.964Z,99.99
2023-02-15T08:52:16.867Z,99.99
2023-02-15T08:53:16.934Z,99.99
2023-02-15T08:54:16.870Z,99.99
2023-02-15T08:55:16.842Z,99.99
2023-02-15T08:56:16.830Z,99.99
2023-02-15T08:57:16.899Z,99.99
2023-02-15T08:58:16.807Z,99.99
2023-02-15T08:59:16.781Z,99.99
2023-02-15T09:00:16.780Z,99.99
2023-02-15T09:01:16.939Z,99.99
2023-02-15T09:02:16.862Z,99.99
2023-02-15T09:03:16.781Z,99.99
2023-02-15T09:04:16.927Z,99.99
2023-02-15T09:05:16.713Z,99.99
2023-02-15T09:06:16.719Z,99.99
2023-02-15T09:07:16.768Z,99.99
2023-02-15T09:08:16.695Z,99.99
2023-02-15T09:09:16.675Z,99.99
2023-02-15T09:10:16.678Z,99.99
2023-02-15T09:11:16.650Z,99.99
2023-02-15T09:12:16.639Z,99.99
2023-02-15T09:13:16.684Z,99.99
2023-02-15T09:14:16.638Z,99.99
2023-02-15T09:15:16.616Z,99.99
2023-02-15T09:16:16.687Z,99.99
2023-02-15T09:17:16.633Z,99.99
2023-02-15T09:18:16.574Z,99.99
2023-02-15T09:19:16.608Z,99.99
2023-02-15T09:20:16.571Z,99.99
2023-02-15T09:21:16.582Z,99.99
2023-02-15T09:22:16.617Z,99.99
2023-02-15T09:23:26.770Z,99.99
2023-02-15T09:24:17.538Z,99.99
2023-02-15T09:25:16.525Z,99.99
2023-02-15T09:26:16.482Z,99.99
2023-02-15T09:27:16.468Z,99.99
2023-02-15T09:28:16.523Z,99.99
2023-02-15T09:29:16.555Z,99.99
2023-02-15T09:30:16.510Z,99.99
2023-02-15T09:31:16.612Z,99.99
2023-02-15T09:32:16.514Z,99.99
2023-02-15T09:33:16.425Z,99.99
2023-02-15T09:34:16.395Z,99.99
2023-02-15T09:35:16.400Z,99.99
2023-02-15T09:36:16.383Z,99.99
2023-02-15T09:37:16.358Z,99.99
2023-02-15T09:38:16.390Z,99.99
2023-02-15T09:39:16.367Z,99.99
2023-02-15T09:40:16.333Z,99.99
2023-02-15T09:41:16.334Z,99.99
2023-02-15T09:42:16.314Z,99.99
2023-02-15T09:43:16.290Z,99.99
2023-02-15T09:44:16.336Z,99.99
2023-02-15T09:45:18.486Z,99.99
2023-02-15T09:46:16.267Z,99.99
2023-02-15T09:47:16.271Z,99.99
2023-02-15T09:48:16.267Z,99.99
2023-02-15T09:49:16.230Z,99.99
2023-02-15T09:50:16.234Z,99.99
2023-02-15T09:51:16.204Z,99.99
2023-02-15T09:52:16.188Z,99.99
2023-02-15T09:53:16.208Z,99.99
2023-02-15T09:54:16.202Z,99.99
2023-02-15T09:55:16.184Z,99.99
2023-02-15T09:56:16.145Z,99.99
2023-02-15T09:57:16.144Z,99.99
2023-02-15T09:58:16.127Z,99.99
2023-02-15T09:59:16.690Z,99.99
2023-02-15T10:00:16.146Z,99.99
2023-02-15T10:01:16.149Z,99.99
2023-02-15T10:02:16.081Z,99.99
2023-02-15T10:03:16.084Z,99.99
2023-02-15T10:04:16.090Z,99.99
2023-02-15T10:05:16.083Z,99.99
2023-02-15T10:06:16.071Z,99.99
2023-02-15T10:07:16.073Z,99.99
2023-02-15T10:08:16.023Z,99.99
2023-02-15T10:09:16.014Z,99.99
2023-02-15T10:10:16.008Z,99.99
2023-02-15T10:11:16.019Z,99.99
2023-02-15T10:12:16.040Z,99.99
2023-02-15T10:13:15.989Z,99.99
2023-02-15T10:14:15.994Z,99.99
2023-02-15T10:15:15.971Z,99.99
2023-02-15T10:16:15.956Z,99.99
2023-02-15T10:17:15.914Z,99.99
2023-02-15T10:18:15.898Z,99.99
2023-02-15T10:19:15.906Z,99.99
2023-02-15T10:20:15.925Z,99.99
2023-02-15T10:21:15.876Z,99.99
2023-02-15T10:22:15.890Z,99.99
2023-02-15T10:23:15.869Z,99.99
2023-02-15T10:24:15.861Z,99.99
2023-02-15T10:25:15.862Z,99.99
2023-02-15T10:26:15.825Z,99.99
2023-02-15T10:27:15.828Z,99.99
2023-02-15T10:28:15.789Z,99.99
2023-02-15T10:29:15.812Z,99.99
2023-02-15T10:30:15.848Z,99.99
2023-02-15T10:31:15.899Z,99.99
2023-02-15T10:32:15.972Z,99.99
2023-02-15T10:33:15.776Z,99.99
2023-02-15T10:34:15.769Z,99.99
2023-02-15T10:35:15.715Z,99.99
2023-02-15T10:36:15.701Z,99.99
2023-02-15T10:37:15.733Z,99.99
2023-02-15T10:38:15.689Z,99.99
2023-02-15T10:39:15.696Z,99.99
2023-02-15T10:40:15.708Z,99.99
2023-02-15T10:41:15.648Z,99.99
2023-02-15T10:42:15.637Z,99.99
2023-02-15T10:43:15.655Z,99.99
2023-02-15T10:44:15.640Z,99.99
2023-02-15T10:45:15.636Z,99.99
2023-02-15T10:46:15.683Z,99.99
2023-02-15T10:47:15.629Z,99.99
2023-02-15T10:48:15.565Z,99.99
2023-02-15T10:49:15.560Z,99.99
2023-02-15T10:50:15.559Z,99.99
2023-02-15T10:51:15.551Z,99.99
2023-02-15T10:52:15.536Z,99.99
2023-02-15T10:53:15.568Z,99.99
2023-02-15T10:54:15.505Z,99.99
2023-02-15T10:55:15.492Z,99.99
2023-02-15T10:56:15.511Z,99.99
2023-02-15T10:57:15.505Z,99.99
2023-02-15T10:58:15.504Z,99.99
2023-02-15T10:59:15.468Z,99.99
2023-02-15T11:00:15.432Z,99.99
2023-02-15T11:01:15.457Z,99.99
2023-02-15T11:02:15.441Z,99.99
2023-02-15T11:03:15.431Z,99.99
2023-02-15T11:04:17.370Z,99.99
2023-02-15T11:05:15.524Z,99.99
2023-02-15T11:06:15.400Z,99.99
2023-02-15T11:07:15.364Z,99.99
2023-02-15T11:08:15.359Z,99.99
2023-02-15T11:09:15.330Z,99.99
2023-02-15T11:10:17.507Z,99.99
2023-02-15T11:11:15.402Z,99.99
2023-02-15T11:12:15.296Z,99.99
2023-02-15T11:13:15.295Z,99.99
2023-02-15T11:14:15.302Z,99.99
2023-02-15T11:15:15.283Z,99.99
2023-02-15T11:16:17.554Z,99.99
2023-02-15T11:17:15.268Z,99.99
2023-02-15T11:18:15.236Z,99.99
2023-02-15T11:19:15.247Z,99.99
2023-02-15T11:20:15.243Z,99.99
2023-02-15T11:21:15.198Z,99.99
2023-02-15T11:22:17.101Z,99.99
2023-02-15T11:23:15.218Z,99.99
2023-02-15T11:24:15.175Z,99.99
2023-02-15T11:25:15.170Z,99.99
2023-02-15T11:26:15.185Z,99.99
2023-02-15T11:27:15.184Z,99.99
2023-02-15T11:28:15.124Z,99.99
2023-02-15T11:29:15.114Z,99.99
2023-02-15T11:30:15.140Z,99.99
2023-02-15T11:31:15.258Z,99.99
2023-02-15T11:32:15.178Z,99.99
2023-02-15T11:33:15.060Z,99.99
2023-02-15T11:34:15.068Z,99.99
2023-02-15T11:35:15.069Z,99.99
2023-02-15T11:36:15.023Z,99.99
2023-02-15T11:37:15.055Z,99.99
2023-02-15T11:38:15.053Z,99.99
2023-02-15T11:39:14.995Z,99.99
2023-02-15T11:40:15.031Z,99.99
2023-02-15T11:41:15.009Z,99.99
2023-02-15T11:42:14.997Z,99.99
2023-02-15T11:43:14.946Z,99.99
2023-02-15T11:44:14.942Z,99.99
2023-02-15T11:45:14.933Z,99.99
2023-02-15T11:46:14.956Z,99.99
2023-02-15T11:47:14.974Z,99.99
2023-02-15T11:48:14.916Z,99.99
2023-02-15T11:49:14.877Z,99.99
2023-02-15T11:50:14.864Z,99.99
2023-02-15T11:51:14.861Z,99.99
2023-02-15T11:52:14.862Z,99.99
2023-02-15T11:53:14.861Z,99.99
2023-02-15T11:54:14.823Z,99.99
2023-02-15T11:55:14.813Z,99.99
2023-02-15T11:56:14.799Z,99.99
2023-02-15T11:57:14.807Z,99.99
2023-02-15T11:58:14.848Z,99.99
2023-02-15T11:59:14.789Z,99.99
2023-02-15T12:00:14.753Z,99.99
2023-02-15T12:01:14.745Z,99.99
2023-02-15T12:02:14.737Z,99.99
2023-02-15T12:03:14.742Z,99.99
2023-02-15T12:04:14.809Z,99.99
2023-02-15T12:05:14.762Z,99.99
2023-02-15T12:06:14.685Z,99.99
2023-02-15T12:07:14.700Z,99.99
2023-02-15T12:08:14.683Z,99.99
2023-02-15T12:09:14.693Z,99.99
2023-02-15T12:10:14.673Z,99.99
2023-02-15T12:11:14.670Z,99.99
2023-02-15T12:12:14.619Z,99.99
2023-02-15T12:13:14.632Z,99.99
2023-02-15T12:14:15.110Z,99.99
2023-02-15T12:15:14.608Z,99.99
2023-02-15T12:16:14.628Z,99.99
2023-02-15T12:17:14.611Z,99.99
2023-02-15T12:18:14.616Z,99.69
2023-02-15T12:19:14.587Z,99.99
2023-02-15T12:20:14.532Z,99.43
2023-02-15T12:21:14.564Z,99.43
2023-02-15T12:22:14.532Z,99.22
2023-02-15T12:23:14.567Z,99.99
2023-02-15T12:24:14.508Z,99.63
2023-02-15T12:25:14.482Z,99.99
2023-02-15T12:26:14.467Z,99.99
2023-02-15T12:27:14.483Z,99.99
2023-02-15T12:28:14.466Z,99.79
2023-02-15T12:29:14.480Z,99.99
2023-02-15T12:30:14.502Z,99.99
2023-02-15T12:31:14.528Z,99.68
2023-02-15T12:32:14.467Z,99.99
2023-02-15T12:33:14.387Z,99.99
2023-02-15T12:34:14.413Z,99.99
2023-02-15T12:35:14.384Z,99.99
2023-02-15T12:36:14.367Z,99.99
2023-02-15T12:37:14.379Z,99.99
2023-02-15T12:38:14.346Z,99.99
2023-02-15T12:39:14.381Z,99.99
2023-02-15T12:40:14.360Z,99.99
2023-02-15T12:41:14.297Z,99.99
2023-02-15T12:42:14.304Z,99.99
2023-02-15T12:43:14.282Z,99.99
2023-02-15T12:44:14.620Z,99.99
2023-02-15T12:45:19.370Z,99.69
2023-02-15T12:46:15.314Z,99.75
2023-02-15T12:47:14.228Z,99.17
2023-02-15T12:48:14.237Z,98.82
2023-02-15T12:49:20.542Z,99.44
2023-02-15T12:50:15.194Z,99.48
2023-02-15T12:51:14.198Z,98.82
2023-02-15T12:52:14.180Z,99.02